sensor_id;sensor_type;location;lat;lon;timestamp;P1;durP1;ratioP1;P2;durP2;ratioP2
13319;SDS011;59599;47.608;12.190;2023-05-07T04:01:19;2.40;;;2.13;;
13319;SDS011;59599;47.608;12.190;2023-05-07T04:03:45;3.97;;;2.30;;
13319;SDS011;59599;47.608;12.190;2023-05-07T04:06:10;3.97;;;2.43;;
13319;SDS011;59599;47.608;12.190;2023-05-07T04:08:37;3.27;;;2.40;;
13319;SDS011;59599;47.608;12.190;2023-05-07T04:11:02;3.43;;;2.30;;
13319;SDS011;59599;47.608;12.190;2023-05-07T04:13:29;4.17;;;2.43;;
13319;SDS011;59599;47.608;12.190;2023-05-07T04:15:55;2.33;;;2.13;;
13319;SDS011;59599;47.608;12.190;2023-05-07T04:18:22;9.83;;;2.40;;
13319;SDS011;59599;47.608;12.190;2023-05-07T04:20:48;3.50;;;2.33;;
13319;SDS011;59599;47.608;12.190;2023-05-07T04:23:14;3.30;;;2.40;;
13319;SDS011;59599;47.608;12.190;2023-05-07T04:25:40;4.90;;;2.17;;
13319;SDS011;59599;47.608;12.190;2023-05-07T04:28:06;3.00;;;1.97;;
13319;SDS011;59599;47.608;12.190;2023-05-07T04:30:32;3.27;;;2.37;;
13319;SDS011;59599;47.608;12.190;2023-05-07T04:32:58;6.40;;;2.40;;
13319;SDS011;59599;47.608;12.190;2023-05-07T04:35:24;6.60;;;2.60;;
13319;SDS011;59599;47.608;12.190;2023-05-07T04:37:50;7.67;;;2.13;;
13319;SDS011;59599;47.608;12.190;2023-05-07T04:40:16;4.97;;;2.33;;
13319;SDS011;59599;47.608;12.190;2023-05-07T04:42:42;3.97;;;2.50;;
13319;SDS011;59599;47.608;12.190;2023-05-07T04:45:08;3.27;;;2.47;;
13319;SDS011;59599;47.608;12.190;2023-05-07T04:47:35;3.63;;;2.30;;
13319;SDS011;59599;47.608;12.190;2023-05-07T04:50:01;3.23;;;2.30;;
13319;SDS011;59599;47.608;12.190;2023-05-07T04:52:27;3.33;;;2.83;;
13319;SDS011;59599;47.608;12.190;2023-05-07T04:54:53;5.27;;;2.47;;
13319;SDS011;59599;47.608;12.190;2023-05-07T04:57:19;5.83;;;2.47;;
13319;SDS011;59599;47.608;12.190;2023-05-07T04:59:45;3.00;;;2.20;;
13319;SDS011;59599;47.608;12.190;2023-05-07T05:02:11;3.37;;;2.50;;
13319;SDS011;59599;47.608;12.190;2023-05-07T05:04:36;5.40;;;2.50;;
13319;SDS011;59599;47.608;12.190;2023-05-07T05:07:02;5.47;;;2.53;;
13319;SDS011;59599;47.608;12.190;2023-05-07T05:09:31;3.80;;;2.60;;
13319;SDS011;59599;47.608;12.190;2023-05-07T05:11:57;2.97;;;2.23;;
13319;SDS011;59599;47.608;12.190;2023-05-07T05:14:22;5.13;;;2.67;;
13319;SDS011;59599;47.608;12.190;2023-05-07T05:16:48;3.50;;;2.50;;
13319;SDS011;59599;47.608;12.190;2023-05-07T05:19:14;5.03;;;2.60;;
13319;SDS011;59599;47.608;12.190;2023-05-07T05:21:39;4.67;;;2.70;;
13319;SDS011;59599;47.608;12.190;2023-05-07T05:24:05;3.60;;;2.43;;
13319;SDS011;59599;47.608;12.190;2023-05-07T05:26:31;2.87;;;2.27;;
13319;SDS011;59599;47.608;12.190;2023-05-07T05:28:57;5.83;;;2.40;;
13319;SDS011;59599;47.608;12.190;2023-05-07T05:31:23;3.50;;;2.13;;
13319;SDS011;59599;47.608;12.190;2023-05-07T05:33:49;6.30;;;2.27;;
13319;SDS011;59599;47.608;12.190;2023-05-07T05:36:15;6.03;;;2.10;;
13319;SDS011;59599;47.608;12.190;2023-05-07T05:38:41;4.20;;;2.10;;
13319;SDS011;59599;47.608;12.190;2023-05-07T05:41:06;2.53;;;1.90;;
13319;SDS011;59599;47.608;12.190;2023-05-07T05:43:32;2.60;;;1.90;;
13319;SDS011;59599;47.608;12.190;2023-05-07T05:45:58;7.03;;;2.80;;
13319;SDS011;59599;47.608;12.190;2023-05-07T05:48:25;6.23;;;2.60;;
13319;SDS011;59599;47.608;12.190;2023-05-07T05:50:50;4.70;;;2.20;;
13319;SDS011;59599;47.608;12.190;2023-05-07T05:53:16;7.47;;;2.27;;
13319;SDS011;59599;47.608;12.190;2023-05-07T05:55:42;3.37;;;2.27;;
13319;SDS011;59599;47.608;12.190;2023-05-07T05:58:08;2.40;;;2.03;;
13319;SDS011;59599;47.608;12.190;2023-05-07T06:00:35;3.03;;;2.20;;
13319;SDS011;59599;47.608;12.190;2023-05-07T06:03:01;3.00;;;1.97;;
13319;SDS011;59599;47.608;12.190;2023-05-07T06:05:26;2.50;;;2.23;;
13319;SDS011;59599;47.608;12.190;2023-05-07T06:07:52;3.20;;;2.00;;
13319;SDS011;59599;47.608;12.190;2023-05-07T06:10:18;4.53;;;2.20;;
13319;SDS011;59599;47.608;12.190;2023-05-07T06:12:44;3.17;;;2.20;;
13319;SDS011;59599;47.608;12.190;2023-05-07T06:15:10;4.20;;;2.00;;
13319;SDS011;59599;47.608;12.190;2023-05-07T06:17:36;3.03;;;2.10;;
13319;SDS011;59599;47.608;12.190;2023-05-07T06:20:02;7.53;;;3.03;;
13319;SDS011;59599;47.608;12.190;2023-05-07T06:22:28;3.40;;;2.00;;
13319;SDS011;59599;47.608;12.190;2023-05-07T06:24:54;3.03;;;2.20;;
13319;SDS011;59599;47.608;12.190;2023-05-07T06:27:20;3.37;;;2.10;;
13319;SDS011;59599;47.608;12.190;2023-05-07T06:29:45;2.77;;;2.00;;
13319;SDS011;59599;47.608;12.190;2023-05-07T06:32:12;5.70;;;2.33;;
13319;SDS011;59599;47.608;12.190;2023-05-07T06:34:38;9.70;;;2.63;;
13319;SDS011;59599;47.608;12.190;2023-05-07T06:37:04;3.30;;;1.90;;
13319;SDS011;59599;47.608;12.190;2023-05-07T06:39:30;3.10;;;2.03;;
13319;SDS011;59599;47.608;12.190;2023-05-07T06:41:56;2.80;;;2.00;;
13319;SDS011;59599;47.608;12.190;2023-05-07T06:44:22;7.20;;;1.90;;
13319;SDS011;59599;47.608;12.190;2023-05-07T06:46:48;3.50;;;2.30;;
13319;SDS011;59599;47.608;12.190;2023-05-07T06:49:14;6.07;;;2.03;;
13319;SDS011;59599;47.608;12.190;2023-05-07T06:51:40;3.77;;;2.10;;
13319;SDS011;59599;47.608;12.190;2023-05-07T06:54:06;2.33;;;2.13;;
13319;SDS011;59599;47.608;12.190;2023-05-07T06:56:32;2.23;;;2.00;;
13319;SDS011;59599;47.608;12.190;2023-05-07T06:59:02;4.13;;;2.00;;
13319;SDS011;59599;47.608;12.190;2023-05-07T07:01:28;18.15;;;2.28;;
13319;SDS011;59599;47.608;12.190;2023-05-07T07:03:54;2.63;;;1.80;;
13319;SDS011;59599;47.608;12.190;2023-05-07T07:06:20;3.20;;;1.67;;
13319;SDS011;59599;47.608;12.190;2023-05-07T07:08:46;4.05;;;1.85;;
13319;SDS011;59599;47.608;12.190;2023-05-07T07:11:12;2.40;;;1.77;;
13319;SDS011;59599;47.608;12.190;2023-05-07T07:13:37;4.03;;;1.80;;
13319;SDS011;59599;47.608;12.190;2023-05-07T07:16:03;2.97;;;1.70;;
13319;SDS011;59599;47.608;12.190;2023-05-07T07:18:29;3.13;;;1.85;;
13319;SDS011;59599;47.608;12.190;2023-05-07T07:20:55;2.10;;;1.60;;
13319;SDS011;59599;47.608;12.190;2023-05-07T07:23:21;1.70;;;1.58;;
13319;SDS011;59599;47.608;12.190;2023-05-07T07:25:47;5.20;;;1.85;;
13319;SDS011;59599;47.608;12.190;2023-05-07T07:28:13;2.00;;;1.75;;
13319;SDS011;59599;47.608;12.190;2023-05-07T07:30:39;5.30;;;1.50;;
13319;SDS011;59599;47.608;12.190;2023-05-07T07:33:05;2.03;;;1.70;;
13319;SDS011;59599;47.608;12.190;2023-05-07T07:35:31;3.35;;;1.70;;
13319;SDS011;59599;47.608;12.190;2023-05-07T07:37:57;4.65;;;1.70;;
13319;SDS011;59599;47.608;12.190;2023-05-07T07:40:23;3.35;;;1.58;;
13319;SDS011;59599;47.608;12.190;2023-05-07T07:42:50;2.20;;;1.83;;
13319;SDS011;59599;47.608;12.190;2023-05-07T07:45:16;3.30;;;1.63;;
13319;SDS011;59599;47.608;12.190;2023-05-07T07:47:42;2.13;;;1.65;;
13319;SDS011;59599;47.608;12.190;2023-05-07T07:50:08;3.75;;;1.70;;
13319;SDS011;59599;47.608;12.190;2023-05-07T07:52:34;3.78;;;1.55;;
13319;SDS011;59599;47.608;12.190;2023-05-07T07:55:00;1.95;;;1.80;;
13319;SDS011;59599;47.608;12.190;2023-05-07T07:57:26;2.85;;;1.77;;
13319;SDS011;59599;47.608;12.190;2023-05-07T07:59:52;3.45;;;1.77;;
13319;SDS011;59599;47.608;12.190;2023-05-07T08:02:18;1.55;;;1.40;;
13319;SDS011;59599;47.608;12.190;2023-05-07T08:04:44;2.03;;;1.63;;
13319;SDS011;59599;47.608;12.190;2023-05-07T08:07:10;1.70;;;1.10;;
13319;SDS011;59599;47.608;12.190;2023-05-07T08:09:39;3.90;;;1.25;;
13319;SDS011;59599;47.608;12.190;2023-05-07T08:12:05;3.20;;;1.30;;
13319;SDS011;59599;47.608;12.190;2023-05-07T08:14:32;1.65;;;1.45;;
13319;SDS011;59599;47.608;12.190;2023-05-07T08:16:58;2.05;;;1.30;;
13319;SDS011;59599;47.608;12.190;2023-05-07T08:19:24;2.08;;;1.60;;
13319;SDS011;59599;47.608;12.190;2023-05-07T08:21:50;1.70;;;1.30;;
13319;SDS011;59599;47.608;12.190;2023-05-07T08:24:16;2.05;;;1.40;;
13319;SDS011;59599;47.608;12.190;2023-05-07T08:26:45;1.75;;;1.20;;
13319;SDS011;59599;47.608;12.190;2023-05-07T08:29:11;2.60;;;1.40;;
13319;SDS011;59599;47.608;12.190;2023-05-07T08:31:37;1.35;;;1.25;;
13319;SDS011;59599;47.608;12.190;2023-05-07T08:34:05;2.08;;;1.52;;
13319;SDS011;59599;47.608;12.190;2023-05-07T08:36:31;4.20;;;1.50;;
13319;SDS011;59599;47.608;12.190;2023-05-07T08:38:57;4.93;;;1.50;;
13319;SDS011;59599;47.608;12.190;2023-05-07T08:41:23;2.65;;;1.33;;
13319;SDS011;59599;47.608;12.190;2023-05-07T08:43:50;2.42;;;1.60;;
13319;SDS011;59599;47.608;12.190;2023-05-07T08:46:25;5.85;;;1.58;;
13319;SDS011;59599;47.608;12.190;2023-05-07T08:48:51;5.45;;;1.77;;
13319;SDS011;59599;47.608;12.190;2023-05-07T08:51:19;1.63;;;1.35;;
13319;SDS011;59599;47.608;12.190;2023-05-07T08:53:46;5.28;;;1.40;;
13319;SDS011;59599;47.608;12.190;2023-05-07T08:56:15;3.70;;;1.77;;
13319;SDS011;59599;47.608;12.190;2023-05-07T08:58:42;2.35;;;1.45;;
13319;SDS011;59599;47.608;12.190;2023-05-07T09:01:09;1.90;;;1.52;;
13319;SDS011;59599;47.608;12.190;2023-05-07T09:03:37;3.97;;;1.75;;
13319;SDS011;59599;47.608;12.190;2023-05-07T09:06:03;2.05;;;1.70;;
13319;SDS011;59599;47.608;12.190;2023-05-07T09:08:28;4.82;;;1.77;;
13319;SDS011;59599;47.608;12.190;2023-05-07T09:10:54;1.67;;;1.50;;
13319;SDS011;59599;47.608;12.190;2023-05-07T09:13:20;4.93;;;1.58;;
13319;SDS011;59599;47.608;12.190;2023-05-07T09:15:46;4.20;;;1.60;;
13319;SDS011;59599;47.608;12.190;2023-05-07T09:18:12;3.38;;;1.60;;
13319;SDS011;59599;47.608;12.190;2023-05-07T09:20:38;2.53;;;1.70;;
13319;SDS011;59599;47.608;12.190;2023-05-07T09:23:04;2.67;;;1.38;;
13319;SDS011;59599;47.608;12.190;2023-05-07T09:25:31;1.55;;;1.20;;
13319;SDS011;59599;47.608;12.190;2023-05-07T09:27:57;3.40;;;1.50;;
13319;SDS011;59599;47.608;12.190;2023-05-07T09:30:26;3.22;;;1.42;;
13319;SDS011;59599;47.608;12.190;2023-05-07T09:32:56;2.42;;;1.60;;
13319;SDS011;59599;47.608;12.190;2023-05-07T09:35:22;1.88;;;1.40;;
13319;SDS011;59599;47.608;12.190;2023-05-07T09:37:52;2.47;;;1.63;;
13319;SDS011;59599;47.608;12.190;2023-05-07T09:40:22;2.92;;;1.40;;
13319;SDS011;59599;47.608;12.190;2023-05-07T09:42:52;2.22;;;1.55;;
13319;SDS011;59599;47.608;12.190;2023-05-07T09:45:27;3.75;;;1.40;;
13319;SDS011;59599;47.608;12.190;2023-05-07T09:47:54;2.30;;;1.42;;
13319;SDS011;59599;47.608;12.190;2023-05-07T09:50:22;2.17;;;1.40;;
13319;SDS011;59599;47.608;12.190;2023-05-07T09:52:53;2.83;;;1.60;;
13319;SDS011;59599;47.608;12.190;2023-05-07T09:55:20;4.00;;;1.38;;
13319;SDS011;59599;47.608;12.190;2023-05-07T09:57:48;2.60;;;1.75;;
13319;SDS011;59599;47.608;12.190;2023-05-07T10:00:15;3.55;;;1.55;;
13319;SDS011;59599;47.608;12.190;2023-05-07T10:02:42;2.33;;;1.35;;
13319;SDS011;59599;47.608;12.190;2023-05-07T10:05:13;1.95;;;1.20;;
13319;SDS011;59599;47.608;12.190;2023-05-07T10:07:40;1.70;;;1.60;;
13319;SDS011;59599;47.608;12.190;2023-05-07T10:10:06;2.72;;;1.48;;
13319;SDS011;59599;47.608;12.190;2023-05-07T10:12:32;1.80;;;1.45;;
13319;SDS011;59599;47.608;12.190;2023-05-07T10:15:05;6.05;;;1.48;;
13319;SDS011;59599;47.608;12.190;2023-05-07T10:17:32;2.47;;;1.40;;
13319;SDS011;59599;47.608;12.190;2023-05-07T10:20:01;2.03;;;1.58;;
13319;SDS011;59599;47.608;12.190;2023-05-07T10:22:28;1.50;;;1.30;;
13319;SDS011;59599;47.608;12.190;2023-05-07T10:24:56;1.73;;;1.50;;
13319;SDS011;59599;47.608;12.190;2023-05-07T10:27:27;2.22;;;1.70;;
13319;SDS011;59599;47.608;12.190;2023-05-07T10:30:00;3.95;;;1.85;;
13319;SDS011;59599;47.608;12.190;2023-05-07T10:32:47;4.22;;;1.73;;
13319;SDS011;59599;47.608;12.190;2023-05-07T10:35:22;3.10;;;1.38;;
13319;SDS011;59599;47.608;12.190;2023-05-07T10:37:50;1.77;;;1.65;;
13319;SDS011;59599;47.608;12.190;2023-05-07T10:40:16;3.22;;;1.90;;
13319;SDS011;59599;47.608;12.190;2023-05-07T10:42:57;2.50;;;2.05;;
13319;SDS011;59599;47.608;12.190;2023-05-07T10:45:27;2.33;;;1.80;;
13319;SDS011;59599;47.608;12.190;2023-05-07T10:48:15;2.63;;;2.10;;
13319;SDS011;59599;47.608;12.190;2023-05-07T10:50:41;4.47;;;2.10;;
13319;SDS011;59599;47.608;12.190;2023-05-07T10:55:48;2.72;;;1.83;;
13319;SDS011;59599;47.608;12.190;2023-05-07T11:00:46;1.83;;;1.67;;
13319;SDS011;59599;47.608;12.190;2023-05-07T11:03:12;3.92;;;1.90;;
13319;SDS011;59599;47.608;12.190;2023-05-07T11:05:40;2.88;;;2.00;;
13319;SDS011;59599;47.608;12.190;2023-05-07T11:08:06;4.30;;;2.13;;
13319;SDS011;59599;47.608;12.190;2023-05-07T11:13:17;3.17;;;1.73;;
13319;SDS011;59599;47.608;12.190;2023-05-07T11:18:10;3.17;;;1.40;;
13319;SDS011;59599;47.608;12.190;2023-05-07T11:20:46;2.58;;;1.40;;
13319;SDS011;59599;47.608;12.190;2023-05-07T11:25:58;4.13;;;1.48;;
13319;SDS011;59599;47.608;12.190;2023-05-07T11:28:25;5.35;;;1.80;;
13319;SDS011;59599;47.608;12.190;2023-05-07T11:30:52;8.82;;;1.60;;
13319;SDS011;59599;47.608;12.190;2023-05-07T11:33:18;4.20;;;1.90;;
13319;SDS011;59599;47.608;12.190;2023-05-07T11:35:44;3.25;;;1.52;;
13319;SDS011;59599;47.608;12.190;2023-05-07T11:38:11;4.65;;;1.70;;
13319;SDS011;59599;47.608;12.190;2023-05-07T11:40:53;2.95;;;1.73;;
13319;SDS011;59599;47.608;12.190;2023-05-07T11:43:20;4.55;;;1.70;;
13319;SDS011;59599;47.608;12.190;2023-05-07T11:45:46;7.22;;;1.85;;
13319;SDS011;59599;47.608;12.190;2023-05-07T11:48:12;2.95;;;1.83;;
13319;SDS011;59599;47.608;12.190;2023-05-07T11:53:24;2.47;;;1.45;;
13319;SDS011;59599;47.608;12.190;2023-05-07T11:55:56;2.65;;;1.80;;
13319;SDS011;59599;47.608;12.190;2023-05-07T11:58:23;1.00;;;0.90;;
13319;SDS011;59599;47.608;12.190;2023-05-07T12:00:50;4.85;;;1.27;;
13319;SDS011;59599;47.608;12.190;2023-05-07T12:03:19;2.28;;;1.00;;
13319;SDS011;59599;47.608;12.190;2023-05-07T12:05:46;2.15;;;1.10;;
13319;SDS011;59599;47.608;12.190;2023-05-07T12:08:18;7.53;;;1.60;;
13319;SDS011;59599;47.608;12.190;2023-05-07T12:10:45;2.30;;;1.15;;
13319;SDS011;59599;47.608;12.190;2023-05-07T12:13:15;3.88;;;1.40;;
13319;SDS011;59599;47.608;12.190;2023-05-07T12:15:42;4.57;;;2.55;;
13319;SDS011;59599;47.608;12.190;2023-05-07T12:18:08;5.00;;;2.65;;
13319;SDS011;59599;47.608;12.190;2023-05-07T12:20:35;6.57;;;1.40;;
13319;SDS011;59599;47.608;12.190;2023-05-07T12:23:01;1.55;;;1.20;;
13319;SDS011;59599;47.608;12.190;2023-05-07T12:25:30;3.25;;;1.60;;
13319;SDS011;59599;47.608;12.190;2023-05-07T12:27:57;4.45;;;1.60;;
13319;SDS011;59599;47.608;12.190;2023-05-07T12:30:24;2.72;;;1.30;;
13319;SDS011;59599;47.608;12.190;2023-05-07T12:32:52;2.80;;;1.50;;
13319;SDS011;59599;47.608;12.190;2023-05-07T12:35:26;4.82;;;1.40;;
13319;SDS011;59599;47.608;12.190;2023-05-07T12:37:55;3.40;;;1.52;;
13319;SDS011;59599;47.608;12.190;2023-05-07T12:40:21;2.53;;;1.50;;
13319;SDS011;59599;47.608;12.190;2023-05-07T12:42:47;4.75;;;1.50;;
13319;SDS011;59599;47.608;12.190;2023-05-07T12:45:19;3.50;;;1.55;;
13319;SDS011;59599;47.608;12.190;2023-05-07T12:47:45;3.15;;;1.60;;
13319;SDS011;59599;47.608;12.190;2023-05-07T12:50:11;3.53;;;1.60;;
13319;SDS011;59599;47.608;12.190;2023-05-07T12:52:37;4.50;;;1.63;;
13319;SDS011;59599;47.608;12.190;2023-05-07T12:55:07;1.40;;;1.30;;
13319;SDS011;59599;47.608;12.190;2023-05-07T12:57:39;5.97;;;2.00;;
13319;SDS011;59599;47.608;12.190;2023-05-07T13:00:06;2.78;;;1.70;;
13319;SDS011;59599;47.608;12.190;2023-05-07T13:02:32;3.83;;;1.20;;
13319;SDS011;59599;47.608;12.190;2023-05-07T13:04:59;2.42;;;1.40;;
13319;SDS011;59599;47.608;12.190;2023-05-07T13:07:25;1.70;;;1.50;;
13319;SDS011;59599;47.608;12.190;2023-05-07T13:09:51;2.05;;;1.45;;
13319;SDS011;59599;47.608;12.190;2023-05-07T13:12:16;3.00;;;1.50;;
13319;SDS011;59599;47.608;12.190;2023-05-07T13:14:42;4.60;;;1.05;;
13319;SDS011;59599;47.608;12.190;2023-05-07T13:17:08;2.05;;;1.30;;
13319;SDS011;59599;47.608;12.190;2023-05-07T13:19:34;1.52;;;1.20;;
13319;SDS011;59599;47.608;12.190;2023-05-07T13:22:02;1.88;;;1.30;;
13319;SDS011;59599;47.608;12.190;2023-05-07T13:24:28;1.95;;;1.20;;
13319;SDS011;59599;47.608;12.190;2023-05-07T13:26:54;1.95;;;1.00;;
13319;SDS011;59599;47.608;12.190;2023-05-07T13:29:20;1.27;;;1.10;;
13319;SDS011;59599;47.608;12.190;2023-05-07T13:31:53;4.15;;;1.20;;
13319;SDS011;59599;47.608;12.190;2023-05-07T13:34:19;3.47;;;1.40;;
13319;SDS011;59599;47.608;12.190;2023-05-07T13:36:45;1.67;;;1.10;;
13319;SDS011;59599;47.608;12.190;2023-05-07T13:39:10;1.65;;;1.25;;
13319;SDS011;59599;47.608;12.190;2023-05-07T13:41:36;1.65;;;1.10;;
13319;SDS011;59599;47.608;12.190;2023-05-07T13:44:02;1.25;;;1.00;;
13319;SDS011;59599;47.608;12.190;2023-05-07T13:46:29;3.72;;;1.42;;
13319;SDS011;59599;47.608;12.190;2023-05-07T13:48:55;2.40;;;1.00;;
13319;SDS011;59599;47.608;12.190;2023-05-07T13:51:21;1.60;;;1.00;;
13319;SDS011;59599;47.608;12.190;2023-05-07T13:53:47;1.00;;;0.90;;
13319;SDS011;59599;47.608;12.190;2023-05-07T13:56:13;3.17;;;1.02;;
13319;SDS011;59599;47.608;12.190;2023-05-07T13:58:40;2.65;;;1.20;;
13319;SDS011;59599;47.608;12.190;2023-05-07T14:01:06;2.45;;;0.98;;
13319;SDS011;59599;47.608;12.190;2023-05-07T14:03:31;2.50;;;1.00;;
13319;SDS011;59599;47.608;12.190;2023-05-07T14:05:58;2.47;;;1.20;;
13319;SDS011;59599;47.608;12.190;2023-05-07T14:08:26;5.20;;;2.05;;
13319;SDS011;59599;47.608;12.190;2023-05-07T14:10:52;4.43;;;1.20;;
13319;SDS011;59599;47.608;12.190;2023-05-07T14:13:18;9.10;;;5.47;;
13319;SDS011;59599;47.608;12.190;2023-05-07T14:15:44;11.25;;;7.88;;
13319;SDS011;59599;47.608;12.190;2023-05-07T14:18:11;4.05;;;2.90;;
13319;SDS011;59599;47.608;12.190;2023-05-07T14:20:37;5.38;;;3.85;;
13319;SDS011;59599;47.608;12.190;2023-05-07T14:23:03;1.42;;;0.95;;
13319;SDS011;59599;47.608;12.190;2023-05-07T14:25:29;1.55;;;1.02;;
13319;SDS011;59599;47.608;12.190;2023-05-07T14:27:57;2.35;;;1.15;;
13319;SDS011;59599;47.608;12.190;2023-05-07T14:30:23;1.88;;;0.80;;
13319;SDS011;59599;47.608;12.190;2023-05-07T14:32:49;1.35;;;0.93;;
13319;SDS011;59599;47.608;12.190;2023-05-07T14:35:15;1.85;;;0.95;;
13319;SDS011;59599;47.608;12.190;2023-05-07T14:37:41;1.17;;;0.98;;
13319;SDS011;59599;47.608;12.190;2023-05-07T14:40:07;1.02;;;0.80;;
13319;SDS011;59599;47.608;12.190;2023-05-07T14:42:34;0.98;;;0.90;;
13319;SDS011;59599;47.608;12.190;2023-05-07T14:45:00;3.05;;;1.08;;
13319;SDS011;59599;47.608;12.190;2023-05-07T14:47:25;1.83;;;1.10;;
13319;SDS011;59599;47.608;12.190;2023-05-07T14:49:51;1.20;;;0.82;;
13319;SDS011;59599;47.608;12.190;2023-05-07T14:52:18;2.30;;;1.00;;
13319;SDS011;59599;47.608;12.190;2023-05-07T14:54:43;2.88;;;1.30;;
13319;SDS011;59599;47.608;12.190;2023-05-07T14:57:09;2.30;;;1.02;;
13319;SDS011;59599;47.608;12.190;2023-05-07T14:59:38;1.92;;;1.05;;
13319;SDS011;59599;47.608;12.190;2023-05-07T15:02:04;2.35;;;0.95;;
13319;SDS011;59599;47.608;12.190;2023-05-07T15:04:32;1.02;;;0.90;;
13319;SDS011;59599;47.608;12.190;2023-05-07T15:06:58;6.45;;;1.38;;
13319;SDS011;59599;47.608;12.190;2023-05-07T15:09:24;3.42;;;1.10;;
13319;SDS011;59599;47.608;12.190;2023-05-07T15:11:50;1.85;;;1.00;;
13319;SDS011;59599;47.608;12.190;2023-05-07T15:14:16;2.70;;;1.10;;
13319;SDS011;59599;47.608;12.190;2023-05-07T15:16:41;1.33;;;0.95;;
13319;SDS011;59599;47.608;12.190;2023-05-07T15:19:07;1.23;;;1.10;;
13319;SDS011;59599;47.608;12.190;2023-05-07T15:21:33;4.65;;;1.77;;
13319;SDS011;59599;47.608;12.190;2023-05-07T15:24:00;3.55;;;1.45;;
13319;SDS011;59599;47.608;12.190;2023-05-07T15:26:26;1.27;;;1.15;;
13319;SDS011;59599;47.608;12.190;2023-05-07T15:28:52;5.90;;;1.73;;
13319;SDS011;59599;47.608;12.190;2023-05-07T15:31:20;1.45;;;0.95;;
13319;SDS011;59599;47.608;12.190;2023-05-07T15:33:46;1.65;;;0.77;;
13319;SDS011;59599;47.608;12.190;2023-05-07T15:36:12;1.20;;;1.08;;
13319;SDS011;59599;47.608;12.190;2023-05-07T15:38:38;2.25;;;1.30;;
13319;SDS011;59599;47.608;12.190;2023-05-07T15:41:04;1.30;;;1.20;;
13319;SDS011;59599;47.608;12.190;2023-05-07T15:43:30;2.80;;;1.35;;
13319;SDS011;59599;47.608;12.190;2023-05-07T15:45:55;2.75;;;2.10;;
13319;SDS011;59599;47.608;12.190;2023-05-07T15:48:21;4.50;;;2.10;;
13319;SDS011;59599;47.608;12.190;2023-05-07T15:50:47;4.70;;;2.00;;
13319;SDS011;59599;47.608;12.190;2023-05-07T15:53:12;1.60;;;1.40;;
13319;SDS011;59599;47.608;12.190;2023-05-07T15:55:39;1.75;;;1.33;;
13319;SDS011;59599;47.608;12.190;2023-05-07T15:58:06;2.15;;;1.10;;
13319;SDS011;59599;47.608;12.190;2023-05-07T16:00:32;1.90;;;1.30;;
13319;SDS011;59599;47.608;12.190;2023-05-07T16:03:00;2.80;;;1.42;;
13319;SDS011;59599;47.608;12.190;2023-05-07T16:05:25;2.55;;;1.17;;
13319;SDS011;59599;47.608;12.190;2023-05-07T16:07:51;4.18;;;1.58;;
13319;SDS011;59599;47.608;12.190;2023-05-07T16:10:17;3.38;;;1.40;;
13319;SDS011;59599;47.608;12.190;2023-05-07T16:12:43;1.25;;;1.10;;
13319;SDS011;59599;47.608;12.190;2023-05-07T16:15:09;1.05;;;0.90;;
13319;SDS011;59599;47.608;12.190;2023-05-07T16:17:34;1.45;;;1.08;;
13319;SDS011;59599;47.608;12.190;2023-05-07T16:20:01;2.28;;;1.20;;
13319;SDS011;59599;47.608;12.190;2023-05-07T16:22:30;1.88;;;1.25;;
13319;SDS011;59599;47.608;12.190;2023-05-07T16:24:56;3.03;;;1.38;;
13319;SDS011;59599;47.608;12.190;2023-05-07T16:27:22;3.35;;;1.33;;
13319;SDS011;59599;47.608;12.190;2023-05-07T16:29:47;2.13;;;1.08;;
13319;SDS011;59599;47.608;12.190;2023-05-07T16:32:13;1.50;;;1.27;;
13319;SDS011;59599;47.608;12.190;2023-05-07T16:34:39;3.38;;;1.52;;
13319;SDS011;59599;47.608;12.190;2023-05-07T16:37:05;2.88;;;2.40;;
13319;SDS011;59599;47.608;12.190;2023-05-07T16:39:31;5.38;;;4.28;;
13319;SDS011;59599;47.608;12.190;2023-05-07T16:41:57;5.55;;;1.70;;
13319;SDS011;59599;47.608;12.190;2023-05-07T16:44:23;3.00;;;1.23;;
13319;SDS011;59599;47.608;12.190;2023-05-07T16:46:49;2.50;;;1.27;;
13319;SDS011;59599;47.608;12.190;2023-05-07T16:49:17;3.17;;;1.40;;
13319;SDS011;59599;47.608;12.190;2023-05-07T16:51:43;1.50;;;1.40;;
13319;SDS011;59599;47.608;12.190;2023-05-07T16:54:10;1.83;;;1.42;;
13319;SDS011;59599;47.608;12.190;2023-05-07T16:56:37;3.83;;;2.20;;
13319;SDS011;59599;47.608;12.190;2023-05-07T16:59:02;2.80;;;1.90;;
13319;SDS011;59599;47.608;12.190;2023-05-07T17:01:28;5.95;;;2.90;;
13319;SDS011;59599;47.608;12.190;2023-05-07T17:03:56;6.60;;;2.10;;
13319;SDS011;59599;47.608;12.190;2023-05-07T17:06:22;2.75;;;1.90;;
13319;SDS011;59599;47.608;12.190;2023-05-07T17:08:48;3.38;;;1.92;;
13319;SDS011;59599;47.608;12.190;2023-05-07T17:11:15;3.33;;;2.08;;
13319;SDS011;59599;47.608;12.190;2023-05-07T17:13:41;2.40;;;1.90;;
13319;SDS011;59599;47.608;12.190;2023-05-07T17:16:06;3.15;;;1.90;;
13319;SDS011;59599;47.608;12.190;2023-05-07T17:18:32;3.90;;;1.95;;
13319;SDS011;59599;47.608;12.190;2023-05-07T17:20:59;3.45;;;2.00;;
13319;SDS011;59599;47.608;12.190;2023-05-07T17:23:25;2.35;;;2.05;;
13319;SDS011;59599;47.608;12.190;2023-05-07T17:25:51;5.28;;;2.05;;
13319;SDS011;59599;47.608;12.190;2023-05-07T17:28:16;5.07;;;3.20;;
13319;SDS011;59599;47.608;12.190;2023-05-07T17:30:42;3.67;;;2.03;;
13319;SDS011;59599;47.608;12.190;2023-05-07T17:33:10;1.70;;;1.60;;
13319;SDS011;59599;47.608;12.190;2023-05-07T17:35:36;2.90;;;1.40;;
13319;SDS011;59599;47.608;12.190;2023-05-07T17:38:01;4.45;;;1.58;;
13319;SDS011;59599;47.608;12.190;2023-05-07T17:40:27;2.67;;;1.40;;
13319;SDS011;59599;47.608;12.190;2023-05-07T17:42:53;1.88;;;1.58;;
13319;SDS011;59599;47.608;12.190;2023-05-07T17:45:19;2.35;;;1.40;;
13319;SDS011;59599;47.608;12.190;2023-05-07T17:47:45;1.30;;;1.20;;
13319;SDS011;59599;47.608;12.190;2023-05-07T17:50:12;2.03;;;1.77;;
13319;SDS011;59599;47.608;12.190;2023-05-07T17:52:38;2.75;;;2.00;;
13319;SDS011;59599;47.608;12.190;2023-05-07T17:55:05;2.85;;;2.13;;
13319;SDS011;59599;47.608;12.190;2023-05-07T17:57:31;2.05;;;1.70;;
13319;SDS011;59599;47.608;12.190;2023-05-07T18:00:00;3.97;;;1.40;;
13319;SDS011;59599;47.608;12.190;2023-05-07T18:02:26;5.40;;;1.30;;
13319;SDS011;59599;47.608;12.190;2023-05-07T18:04:52;1.17;;;1.08;;
13319;SDS011;59599;47.608;12.190;2023-05-07T18:07:18;1.58;;;1.10;;
13319;SDS011;59599;47.608;12.190;2023-05-07T18:09:44;2.60;;;1.20;;
13319;SDS011;59599;47.608;12.190;2023-05-07T18:12:10;1.50;;;1.20;;
13319;SDS011;59599;47.608;12.190;2023-05-07T18:14:36;3.10;;;1.63;;
13319;SDS011;59599;47.608;12.190;2023-05-07T18:17:02;4.53;;;1.70;;
13319;SDS011;59599;47.608;12.190;2023-05-07T18:19:28;1.95;;;1.20;;
13319;SDS011;59599;47.608;12.190;2023-05-07T18:21:53;2.72;;;1.30;;
13319;SDS011;59599;47.608;12.190;2023-05-07T18:24:21;2.33;;;1.00;;
13319;SDS011;59599;47.608;12.190;2023-05-07T18:26:47;2.28;;;1.23;;
13319;SDS011;59599;47.608;12.190;2023-05-07T18:29:13;2.83;;;1.95;;
13319;SDS011;59599;47.608;12.190;2023-05-07T18:31:39;3.13;;;2.10;;
13319;SDS011;59599;47.608;12.190;2023-05-07T18:34:05;3.65;;;2.28;;
13319;SDS011;59599;47.608;12.190;2023-05-07T18:36:31;2.85;;;1.67;;
13319;SDS011;59599;47.608;12.190;2023-05-07T18:38:56;2.65;;;1.80;;
13319;SDS011;59599;47.608;12.190;2023-05-07T18:41:22;3.95;;;1.77;;
13319;SDS011;59599;47.608;12.190;2023-05-07T18:43:48;2.05;;;1.40;;
13319;SDS011;59599;47.608;12.190;2023-05-07T18:46:14;2.15;;;1.13;;